• Join FlightAware (Why Join?)
  • Login
  • US Flag 
09:00AM EDT


 

Airport Tracker/Info


-or-


 

Live Flight TrackerFlight Track Log ✈ TVD220 ✈ 18-May-2012 ✈ KCLM - KBFI

Flight Track Log - Related Links

Times and Time Zones

All times are in EDT time to prevent confusion due to time zone crossing. See the TVD220 flight status page for this flight to view local times or setup timezone preferences in your user account.

Time Position Orientation Groundspeed Altitude Reporting Facility
EDT Latitude Longitude Course Direction KTS MPH feet Rate Location/Type
11:09PM 48.1072 -123.2900 97° East 106 122 3,500  Level Seattle Center
11:10PM 48.1042 -123.2519 99° East 107 123 3,600  Climbing Seattle Center
11:11PM 48.0992 -123.2050 99° East 110 127 3,500 -60 Descending Seattle Center
11:12PM 48.0947 -123.1611 103° East 110 127 3,500  Level Seattle Center
11:13PM 48.0883 -123.1181 107° East 107 123 3,500  Level Seattle Center
11:14PM 48.0800 -123.0764 103° East 103 119 3,500  Level Seattle Center
11:15PM 48.0736 -123.0333 104° East 104 120 3,500  Level Seattle Center
11:16PM 48.0658 -122.9853 97° East 105 121 3,500  Level Seattle Center
11:16PM 48.0636 -122.9592 104° East 106 122 3,500  Level Seattle Center
11:17PM 48.0564 -122.9144 130° Southeast 107 123 3,500  Level Seattle Center
11:18PM 48.0406 -122.8867 140° Southeast 109 125 3,500  Level Seattle Center
11:19PM 48.0311 -122.8747 137° Southeast 107 123 3,500  Level Seattle Center
11:19PM 48.0178 -122.8564 142° Southeast 108 124 3,500  Level Seattle Center
11:20PM 48.0078 -122.8447 139° Southeast 109 125 3,500  Level Seattle Center
11:20PM 47.9956 -122.8289 147° Southeast 110 127 3,500  Level Seattle Center
11:21PM 47.9825 -122.8161 143° Southeast 111 128 3,500  Level Seattle Center
11:21PM 47.9686 -122.8006 144° Southeast 112 129 3,500 60 Level Seattle Center
11:22PM 47.9525 -122.7828 140° Southeast 110 127 3,600  Climbing Seattle Center
11:23PM 47.9297 -122.7544 142° Southeast 108 124 3,500 -60 Descending Seattle Center
11:24PM 47.9050 -122.7253 143° Southeast 112 129 3,500  Level Seattle Center
11:25PM 47.8797 -122.6972 143° Southeast 114 131 3,500  Level Seattle Center
11:26PM 47.8556 -122.6697 143° Southeast 111 128 3,600  Climbing Seattle Center
11:27PM 47.8319 -122.6428 142° Southeast 109 125 3,600 -120 Level Seattle Center
11:28PM 47.8067 -122.6139 144° Southeast 114 131 3,400 -300 Descending Seattle Center
11:29PM 47.7769 -122.5817 141° Southeast 116 133 3,100 -300 Descending Seattle Center
11:30PM 47.7497 -122.5494 144° Southeast 116 133 2,900 -300 Descending Seattle Center
11:31PM 47.7181 -122.5158 142° Southeast 117 135 2,500 -300 Descending Seattle Center
11:32PM 47.6931 -122.4869 135° Southeast 114 131 2,300 -240 Descending Seattle Center
11:33PM 47.6778 -122.4639 139° Southeast 111 128 2,100 -240 Descending Seattle Center
11:34PM 47.6519 -122.4311 137° Southeast 114 131 1,900 -300 Descending Seattle Center
11:35PM 47.6261 -122.3956 138° Southeast 113 130 1,600 -180 Descending Seattle Center
11:36PM 47.6033 -122.3653 151° Southeast 108 124 1,600 -300 Level Seattle Center
11:37PM 47.5794 -122.3453 150° Southeast 107 123 1,100 -480 Descending Seattle Center
11:38PM 47.5533 -122.3225 145° Southeast 103 119 700 -480 Descending Seattle Center
11:39PM 47.5381 -122.3067 145° Southeast 85 98 200 -540 Descending Seattle Center